Time,TemperatureF,DewpointF,PressureIn,WindDirection,WindDirectionDegrees,WindSpeedMPH,WindSpeedGustMPH,Humidity,HourlyPrecipIn,Conditions,Clouds,dailyrainin,SolarRadiationWatts/m^2,SoftwareType,DateUTC
2013-03-23 00:00:00,32.9,15.3,30.05,WSW,248,0.0,0.0,48,0.00,CLR,SKC,0.00,0.0,WeatherDisplay:10.37,2013-03-23 04:00:00,
2013-03-23 00:10:00,32.5,14.5,30.05,WSW,248,0.0,0.0,47,0.00,CLR,SKC,0.00,0.0,WeatherDisplay:10.37,2013-03-23 04:10:00,
2013-03-23 00:20:00,32.3,15.3,30.04,WSW,248,0.0,0.0,49,0.00,CLR,SKC,0.00,0.0,WeatherDisplay:10.37,2013-03-23 04:20:00,
2013-03-23 00:30:00,32.1,15.1,30.04,WSW,248,0.0,0.0,49,0.00,CLR,SKC,0.00,0.0,WeatherDisplay:10.37,2013-03-23 04:30:00,
2013-03-23 00:40:00,31.9,15.3,30.04,WSW,248,0.0,0.0,50,0.00,CLR,SKC,0.00,0.0,WeatherDisplay:10.37,2013-03-23 04:40:00,
2013-03-23 00:50:00,31.7,15.2,30.04,WSW,248,0.0,0.0,50,0.00,CLR,SKC,0.00,0.0,WeatherDisplay:10.37,2013-03-23 04:50:00,
2013-03-23 01:00:00,31.5,15.0,30.04,WSW,248,0.0,0.0,50,0.00,CLR,SKC,0.00,0.0,WeatherDisplay:10.37,2013-03-23 05:00:00,
2013-03-23 01:10:00,31.3,14.3,30.05,WSW,248,0.0,0.0,49,0.00,CLR,SKC,0.00,0.0,WeatherDisplay:10.37,2013-03-23 05:10:00,
2013-03-23 01:20:00,31.2,14.7,30.04,WSW,248,0.0,0.0,50,0.00,CLR,SKC,0.00,0.0,WeatherDisplay:10.37,2013-03-23 05:20:00,
2013-03-23 01:30:00,31.1,15.1,30.04,WSW,248,0.0,0.0,51,0.00,CLR,SKC,0.00,0.0,WeatherDisplay:10.37,2013-03-23 05:30:00,
2013-03-23 01:40:00,30.9,14.4,30.03,WSW,248,0.0,0.0,50,0.00,CLR,SKC,0.00,0.0,WeatherDisplay:10.37,2013-03-23 05:40:00,
2013-03-23 01:50:00,30.7,14.2,30.03,WSW,248,0.0,0.0,50,0.00,CLR,SKC,0.00,0.0,WeatherDisplay:10.37,2013-03-23 05:50:00,
2013-03-23 02:00:00,30.9,14.4,30.04,WSW,248,0.0,0.0,50,0.00,CLR,SKC,0.00,0.0,WeatherDisplay:10.37,2013-03-23 06:00:00,
2013-03-23 02:10:00,31.1,15.1,30.04,WSW,248,0.0,0.0,51,0.00,CLR,SKC,0.00,0.0,WeatherDisplay:10.37,2013-03-23 06:10:00,
2013-03-23 02:20:00,31.2,14.2,30.04,WSW,248,0.0,0.0,49,0.00,CLR,SKC,0.00,0.0,WeatherDisplay:10.37,2013-03-23 06:20:00,
2013-03-23 02:30:00,31.3,15.2,30.05,WSW,248,0.0,0.0,51,0.00,CLR,SKC,0.00,0.0,WeatherDisplay:10.37,2013-03-23 06:30:00,
2013-03-23 02:40:00,31.2,15.2,30.04,WSW,248,0.0,0.0,51,0.00,CLR,SKC,0.00,0.0,WeatherDisplay:10.37,2013-03-23 06:40:00,
2013-03-23 02:50:00,31.1,15.5,30.03,WSW,248,0.0,0.0,52,0.00,CLR,SKC,0.00,0.0,WeatherDisplay:10.37,2013-03-23 06:50:00,
2013-03-23 03:00:00,31.0,15.4,30.03,WSW,248,0.0,0.0,52,0.00,CLR,SKC,0.00,0.0,WeatherDisplay:10.37,2013-03-23 07:00:00,
2013-03-23 03:10:00,30.9,15.3,30.03,WSW,248,0.0,0.0,52,0.00,CLR,SKC,0.00,0.0,WeatherDisplay:10.37,2013-03-23 07:10:00,
2013-03-23 03:20:00,30.9,15.3,30.03,WSW,248,0.0,0.0,52,0.00,CLR,SKC,0.00,0.0,WeatherDisplay:10.37,2013-03-23 07:20:00,
2013-03-23 03:30:00,31.2,15.2,30.03,WSW,248,0.0,0.0,51,0.00,CLR,SKC,0.00,0.0,WeatherDisplay:10.37,2013-03-23 07:30:00,
2013-03-23 03:40:00,31.4,15.3,30.02,WSW,248,0.0,0.0,51,0.00,CLR,SKC,0.00,0.0,WeatherDisplay:10.37,2013-03-23 07:40:00,
2013-03-23 03:50:00,31.8,15.7,30.02,WSW,248,0.0,0.0,51,0.00,CLR,SKC,0.00,0.0,WeatherDisplay:10.37,2013-03-23 07:50:00,
2013-03-23 04:00:00,32.0,15.9,30.02,WSW,248,0.0,0.0,51,0.00,CLR,SKC,0.00,0.0,WeatherDisplay:10.37,2013-03-23 08:00:00,
2013-03-23 04:10:00,32.2,16.1,30.01,WSW,248,0.0,0.0,51,0.00,CLR,SKC,0.00,0.0,WeatherDisplay:10.37,2013-03-23 08:10:00,
2013-03-23 04:20:00,32.3,17.1,30.01,WSW,248,0.0,0.0,53,0.00,CLR,SKC,0.00,0.0,WeatherDisplay:10.37,2013-03-23 08:20:00,
2013-03-23 04:30:00,32.3,15.7,30.01,WSW,248,0.0,0.0,50,0.00,CLR,SKC,0.00,0.0,WeatherDisplay:10.37,2013-03-23 08:30:00,
2013-03-23 04:40:00,32.4,15.8,30.02,WSW,248,0.0,0.0,50,0.00,CLR,SKC,0.00,0.0,WeatherDisplay:10.37,2013-03-23 08:40:00,
2013-03-23 04:50:00,32.5,16.8,30.02,WSW,248,0.0,0.0,52,0.00,CLR,SKC,0.00,0.0,WeatherDisplay:10.37,2013-03-23 08:50:00,
2013-03-23 05:00:00,32.6,16.9,30.02,WSW,248,0.0,0.0,52,0.00,CLR,SKC,0.00,0.0,WeatherDisplay:10.37,2013-03-23 09:00:00,
2013-03-23 05:10:00,32.6,16.9,30.01,WSW,248,0.0,0.0,52,0.00,CLR,SKC,0.00,0.0,WeatherDisplay:10.37,2013-03-23 09:10:00,
2013-03-23 05:20:00,32.6,16.0,30.01,WSW,248,0.0,0.0,50,0.00,CLR,SKC,0.00,0.0,WeatherDisplay:10.37,2013-03-23 09:20:00,
2013-03-23 05:30:00,32.5,16.4,30.01,WSW,248,0.0,0.0,51,0.00,CLR,SKC,0.00,0.0,WeatherDisplay:10.37,2013-03-23 09:30:00,
2013-03-23 05:40:00,32.5,16.4,30.01,WSW,248,0.0,0.0,51,0.00,CLR,SKC,0.00,0.0,WeatherDisplay:10.37,2013-03-23 09:40:00,
2013-03-23 05:50:00,32.5,16.8,30.01,WSW,248,0.0,0.0,52,0.00,CLR,SKC,0.00,0.0,WeatherDisplay:10.37,2013-03-23 09:50:00,
2013-03-23 06:00:00,32.6,17.3,30.02,WSW,248,0.0,0.0,53,0.00,CLR,SKC,0.00,0.0,WeatherDisplay:10.37,2013-03-23 10:00:00,
2013-03-23 06:10:00,32.6,17.8,30.01,WSW,248,0.0,0.0,54,0.00,CLR,SKC,0.00,0.0,WeatherDisplay:10.37,2013-03-23 10:10:00,
2013-03-23 06:20:00,32.6,18.2,30.00,WSW,248,0.0,0.0,55,0.00,CLR,SKC,0.00,0.0,WeatherDisplay:10.37,2013-03-23 10:20:00,
2013-03-23 06:30:00,32.6,18.2,30.01,WSW,248,0.0,0.0,55,0.00,CLR,SKC,0.00,0.0,WeatherDisplay:10.37,2013-03-23 10:30:00,
2013-03-23 06:40:00,32.4,15.8,30.02,WSW,248,0.0,0.0,50,0.00,CLR,SKC,0.00,0.0,WeatherDisplay:10.37,2013-03-23 10:40:00,
2013-03-23 06:50:00,32.4,15.8,30.03,WSW,248,0.0,0.0,50,0.00,CLR,SKC,0.00,0.0,WeatherDisplay:10.37,2013-03-23 10:50:00,
2013-03-23 07:00:00,32.5,17.2,30.03,WSW,248,0.0,0.0,53,0.00,CLR,SKC,0.00,0.0,WeatherDisplay:10.37,2013-03-23 11:00:00,
2013-03-23 07:10:00,32.4,18.0,30.03,WSW,248,0.0,0.0,55,0.00,CLR,SKC,0.00,0.0,WeatherDisplay:10.37,2013-03-23 11:10:00,
2013-03-23 07:20:00,32.4,17.6,30.03,WSW,248,0.0,0.0,54,0.00,CLR,SKC,0.00,0.0,WeatherDisplay:10.37,2013-03-23 11:20:00,
2013-03-23 07:30:00,32.4,18.4,30.03,WSW,248,0.0,0.0,56,0.00,CLR,SKC,0.00,0.0,WeatherDisplay:10.37,2013-03-23 11:30:00,
2013-03-23 07:40:00,32.6,19.0,30.02,WSW,248,0.0,0.0,57,0.00,CLR,SKC,0.00,0.0,WeatherDisplay:10.37,2013-03-23 11:40:00,
2013-03-23 07:50:00,32.6,19.0,30.03,WSW,248,0.0,0.0,57,0.00,CLR,SKC,0.00,0.0,WeatherDisplay:10.37,2013-03-23 11:50:00,
2013-03-23 08:00:00,32.7,19.5,30.04,WSW,248,0.0,0.0,58,0.00,BKN,SKC,0.00,5.0,WeatherDisplay:10.37,2013-03-23 12:00:00,
2013-03-23 08:10:00,32.9,18.9,30.05,WSW,248,0.0,0.0,56,0.00,CLR,SKC,0.00,5.0,WeatherDisplay:10.37,2013-03-23 12:10:00,
2013-03-23 08:20:00,33.4,18.9,30.04,WSW,248,0.0,0.0,55,0.00,BKN,SKC,0.00,12.0,WeatherDisplay:10.37,2013-03-23 12:20:00,
2013-03-23 08:30:00,33.8,19.3,30.05,WSW,248,0.0,0.0,55,0.00,BKN,SKC,0.00,11.0,WeatherDisplay:10.37,2013-03-23 12:30:00,
2013-03-23 08:40:00,33.9,19.0,30.04,WSW,248,0.0,0.0,54,0.00,BKN,SKC,0.00,12.0,WeatherDisplay:10.37,2013-03-23 12:40:00,
2013-03-23 08:50:00,34.1,19.6,30.05,WSW,248,0.0,0.0,55,0.00,BKN,SKC,0.00,14.0,WeatherDisplay:10.37,2013-03-23 12:50:00,
2013-03-23 09:00:00,34.3,19.4,30.05,WSW,248,0.0,0.0,54,0.00,BKN,SKC,0.00,27.0,WeatherDisplay:10.37,2013-03-23 13:00:00,
2013-03-23 09:10:00,34.6,19.2,30.05,WSW,248,0.0,0.0,53,0.00,BKN,SKC,0.00,28.0,WeatherDisplay:10.37,2013-03-23 13:10:00,
2013-03-23 09:20:00,34.9,17.7,30.05,WSW,248,0.0,0.0,49,0.00,BKN,SKC,0.00,37.0,WeatherDisplay:10.37,2013-03-23 13:20:00,
2013-03-23 09:30:00,35.2,18.4,30.05,WSW,248,0.0,0.0,50,0.00,BKN,SKC,0.00,40.0,WeatherDisplay:10.37,2013-03-23 13:30:00,
2013-03-23 09:40:00,35.7,17.4,30.05,WSW,248,0.0,0.0,47,0.00,BKN,SKC,0.00,39.0,WeatherDisplay:10.37,2013-03-23 13:40:00,
2013-03-23 09:50:00,36.2,17.4,30.05,WSW,248,0.0,0.0,46,0.00,BKN,SKC,0.00,44.0,WeatherDisplay:10.37,2013-03-23 13:50:00,
2013-03-23 10:00:00,36.8,16.9,30.05,WSW,248,0.0,0.0,44,0.00,BKN,SKC,0.00,42.0,WeatherDisplay:10.37,2013-03-23 14:00:00,
2013-03-23 10:10:00,37.4,16.9,30.04,WSW,248,0.0,0.0,43,0.00,BKN,SKC,0.00,58.0,WeatherDisplay:10.37,2013-03-23 14:10:00,
2013-03-23 10:20:00,38.0,16.4,30.04,WSW,248,0.0,0.0,41,0.00,BKN,SKC,0.00,53.0,WeatherDisplay:10.37,2013-03-23 14:20:00,
2013-03-23 10:30:00,38.4,17.3,30.04,WSW,248,0.0,0.0,42,0.00,BKN,SKC,0.00,56.0,WeatherDisplay:10.37,2013-03-23 14:30:00,
2013-03-23 10:40:00,39.2,15.7,30.05,WSW,248,0.0,0.0,38,0.00,BKN,SKC,0.00,57.0,WeatherDisplay:10.37,2013-03-23 14:40:00,
2013-03-23 10:50:00,39.8,16.8,30.04,WSW,248,0.0,0.0,39,0.00,BKN,SKC,0.00,67.0,WeatherDisplay:10.37,2013-03-23 14:50:00,
2013-03-23 11:00:00,40.1,17.1,30.04,WSW,248,0.0,0.0,39,0.00,BKN,SKC,0.00,79.0,WeatherDisplay:10.37,2013-03-23 15:00:00,
2013-03-23 11:10:00,40.5,17.5,30.05,WSW,248,0.0,0.0,39,0.00,BKN,SKC,0.00,81.0,WeatherDisplay:10.37,2013-03-23 15:10:00,
2013-03-23 11:20:00,40.8,17.1,30.04,WSW,248,0.0,0.0,38,0.00,BKN,SKC,0.00,93.0,WeatherDisplay:10.37,2013-03-23 15:20:00,
2013-03-23 11:30:00,40.8,16.5,30.04,WSW,248,0.0,0.0,37,0.00,BKN,SKC,0.00,69.0,WeatherDisplay:10.37,2013-03-23 15:30:00,
2013-03-23 11:40:00,41.0,16.7,30.04,WSW,248,0.0,0.0,37,0.00,BKN,SKC,0.00,74.0,WeatherDisplay:10.37,2013-03-23 15:40:00,
2013-03-23 11:50:00,41.5,16.5,30.03,WSW,248,0.0,0.0,36,0.00,BKN,SKC,0.00,85.0,WeatherDisplay:10.37,2013-03-23 15:50:00,
2013-03-23 12:00:00,41.9,16.9,30.03,WSW,248,0.0,0.0,36,0.00,BKN,SKC,0.00,105.0,WeatherDisplay:10.37,2013-03-23 16:00:00,
2013-03-23 12:10:00,42.1,15.7,30.03,WSW,248,0.0,0.0,34,0.00,BKN,SKC,0.00,56.0,WeatherDisplay:10.37,2013-03-23 16:10:00,
2013-03-23 12:20:00,41.9,16.9,30.03,WSW,248,0.0,0.0,36,0.00,BKN,SKC,0.00,49.0,WeatherDisplay:10.37,2013-03-23 16:20:00,
2013-03-23 12:30:00,42.0,17.6,30.02,WSW,248,0.0,0.0,37,0.00,BKN,SKC,0.00,67.0,WeatherDisplay:10.37,2013-03-23 16:30:00,
2013-03-23 12:40:00,41.9,17.5,30.02,WSW,248,0.0,0.0,37,0.00,BKN,SKC,0.00,70.0,WeatherDisplay:10.37,2013-03-23 16:40:00,
2013-03-23 12:50:00,42.0,18.2,30.02,WSW,248,0.0,0.0,38,0.00,BKN,SKC,0.00,72.0,WeatherDisplay:10.37,2013-03-23 16:50:00,
2013-03-23 13:00:00,42.2,17.8,30.02,WSW,248,0.0,0.0,37,0.00,BKN,SKC,0.00,64.0,WeatherDisplay:10.37,2013-03-23 17:00:00,
2013-03-23 13:10:00,42.3,17.8,30.01,WSW,248,0.0,0.0,37,0.00,BKN,SKC,0.00,65.0,WeatherDisplay:10.37,2013-03-23 17:10:00,
2013-03-23 13:20:00,42.5,18.6,30.01,WSW,248,0.0,0.0,38,0.00,BKN,SKC,0.00,102.0,WeatherDisplay:10.37,2013-03-23 17:20:00,
2013-03-23 13:30:00,42.9,19.0,30.01,WSW,248,0.0,0.0,38,0.00,BKN,SKC,0.00,87.0,WeatherDisplay:10.37,2013-03-23 17:30:00,
2013-03-23 13:40:00,43.1,19.8,30.01,WSW,248,0.0,0.0,39,0.00,BKN,SKC,0.00,76.0,WeatherDisplay:10.37,2013-03-23 17:40:00,
2013-03-23 13:50:00,43.5,19.5,30.00,WSW,248,0.0,0.0,38,0.00,BKN,SKC,0.00,123.0,WeatherDisplay:10.37,2013-03-23 17:50:00,
2013-03-23 14:00:00,44.4,20.3,30.00,WSW,248,0.0,0.0,38,0.00,BKN,SKC,0.00,190.0,WeatherDisplay:10.37,2013-03-23 18:00:00,
2013-03-23 14:10:00,44.8,20.7,29.99,WSW,248,0.0,0.0,38,0.00,BKN,SKC,0.00,146.0,WeatherDisplay:10.37,2013-03-23 18:10:00,
2013-03-23 14:20:00,46.0,23.0,29.99,WSW,248,0.0,0.0,40,0.00,BKN,SKC,0.00,186.0,WeatherDisplay:10.37,2013-03-23 18:20:00,
2013-03-23 14:30:00,47.0,22.7,29.98,WSW,248,0.0,0.0,38,0.00,BKN,SKC,0.00,206.0,WeatherDisplay:10.37,2013-03-23 18:30:00,
2013-03-23 14:40:00,47.1,23.4,29.98,WSW,248,0.0,0.0,39,0.00,BKN,SKC,0.00,112.0,WeatherDisplay:10.37,2013-03-23 18:40:00,
2013-03-23 14:50:00,46.8,23.7,29.98,WSW,248,0.0,0.0,40,0.00,BKN,SKC,0.00,81.0,WeatherDisplay:10.37,2013-03-23 18:50:00,
2013-03-23 15:00:00,46.4,25.6,29.98,WSW,248,0.0,0.0,44,0.00,BKN,SKC,0.00,63.0,WeatherDisplay:10.37,2013-03-23 19:00:00,
2013-03-23 15:10:00,46.4,26.2,29.98,WSW,248,0.0,0.0,45,0.00,BKN,SKC,0.00,98.0,WeatherDisplay:10.37,2013-03-23 19:10:00,
2013-03-23 15:20:00,46.1,25.9,29.97,WSW,248,0.0,0.0,45,0.00,BKN,SKC,0.00,114.0,WeatherDisplay:10.37,2013-03-23 19:20:00,
2013-03-23 15:30:00,46.8,26.0,29.97,WSW,248,0.0,0.0,44,0.00,BKN,SKC,0.00,216.0,WeatherDisplay:10.37,2013-03-23 19:30:00,
2013-03-23 15:40:00,47.4,26.6,29.96,WSW,248,0.0,0.0,44,0.00,BKN,SKC,0.00,308.0,WeatherDisplay:10.37,2013-03-23 19:40:00,
2013-03-23 15:50:00,48.9,27.4,29.95,WSW,248,0.0,0.0,43,0.00,CLR,SKC,0.00,589.0,WeatherDisplay:10.37,2013-03-23 19:50:00,
2013-03-23 16:00:00,50.3,28.1,29.95,WSW,248,0.0,0.0,42,0.00,CLR,SKC,0.00,603.0,WeatherDisplay:10.37,2013-03-23 20:00:00,
2013-03-23 16:30:00,49.7,26.9,29.87,SE,134,8.0,30.0,41,0.00,OVC,SKC,0.00,0.0,WeatherDisplay:10.37,2013-03-23 20:30:00,
2013-03-23 16:40:00,49.8,27.0,29.87,SW,233,7.0,8.0,41,0.00,OVC,SKC,0.00,0.0,WeatherDisplay:10.37,2013-03-23 20:40:00,
2013-03-23 16:50:00,49.7,26.9,29.87,WNW,300,7.0,7.0,41,0.00,OVC,SKC,0.00,0.0,WeatherDisplay:10.37,2013-03-23 20:50:00,
2013-03-23 17:00:00,50.3,27.4,29.85,SE,135,7.0,7.0,41,0.00,OVC,SKC,0.00,0.0,WeatherDisplay:10.37,2013-03-23 21:00:00,
2013-03-23 17:10:00,50.6,25.9,29.85,WNW,290,7.0,7.0,38,0.00,OVC,SKC,0.00,0.0,WeatherDisplay:10.37,2013-03-23 21:10:00,